sensor_id;sensor_type;location;lat;lon;timestamp;P1;durP1;ratioP1;P2;durP2;ratioP2
4961;SDS011;2496;52.468;13.342;2024-03-02T00:00:57;73.67;;;38.30;;
4961;SDS011;2496;52.468;13.342;2024-03-02T00:03:26;66.33;;;38.37;;
4961;SDS011;2496;52.468;13.342;2024-03-02T00:05:53;68.90;;;39.37;;
4961;SDS011;2496;52.468;13.342;2024-03-02T00:08:24;70.20;;;41.67;;
4961;SDS011;2496;52.468;13.342;2024-03-02T00:10:56;74.27;;;39.57;;
4961;SDS011;2496;52.468;13.342;2024-03-02T00:13:24;79.27;;;41.17;;
4961;SDS011;2496;52.468;13.342;2024-03-02T00:15:51;70.53;;;39.43;;
4961;SDS011;2496;52.468;13.342;2024-03-02T00:18:20;69.17;;;38.73;;
4961;SDS011;2496;52.468;13.342;2024-03-02T00:20:48;76.40;;;41.77;;
4961;SDS011;2496;52.468;13.342;2024-03-02T00:23:16;76.93;;;40.00;;
4961;SDS011;2496;52.468;13.342;2024-03-02T00:25:46;66.83;;;38.73;;
4961;SDS011;2496;52.468;13.342;2024-03-02T00:28:19;72.63;;;40.63;;
4961;SDS011;2496;52.468;13.342;2024-03-02T00:33:34;74.80;;;41.07;;
4961;SDS011;2496;52.468;13.342;2024-03-02T00:36:03;79.47;;;42.63;;
4961;SDS011;2496;52.468;13.342;2024-03-02T00:38:31;69.77;;;41.10;;
4961;SDS011;2496;52.468;13.342;2024-03-02T00:41:04;81.47;;;41.83;;
4961;SDS011;2496;52.468;13.342;2024-03-02T00:43:42;71.73;;;41.13;;
4961;SDS011;2496;52.468;13.342;2024-03-02T00:46:13;70.03;;;39.63;;
4961;SDS011;2496;52.468;13.342;2024-03-02T00:48:45;69.07;;;39.57;;
4961;SDS011;2496;52.468;13.342;2024-03-02T00:51:16;73.23;;;41.60;;
4961;SDS011;2496;52.468;13.342;2024-03-02T00:53:43;65.83;;;39.80;;
4961;SDS011;2496;52.468;13.342;2024-03-02T00:56:10;90.10;;;42.80;;
4961;SDS011;2496;52.468;13.342;2024-03-02T00:58:39;92.10;;;44.30;;
4961;SDS011;2496;52.468;13.342;2024-03-02T01:01:06;80.93;;;42.40;;
4961;SDS011;2496;52.468;13.342;2024-03-02T01:03:34;77.67;;;45.77;;
4961;SDS011;2496;52.468;13.342;2024-03-02T01:06:02;75.73;;;41.60;;
4961;SDS011;2496;52.468;13.342;2024-03-02T01:08:31;75.40;;;41.03;;
4961;SDS011;2496;52.468;13.342;2024-03-02T01:10:59;74.03;;;39.43;;
4961;SDS011;2496;52.468;13.342;2024-03-02T01:13:26;80.73;;;39.70;;
4961;SDS011;2496;52.468;13.342;2024-03-02T01:15:53;65.57;;;40.70;;
4961;SDS011;2496;52.468;13.342;2024-03-02T01:18:21;80.73;;;40.83;;
4961;SDS011;2496;52.468;13.342;2024-03-02T01:20:48;77.57;;;45.03;;
4961;SDS011;2496;52.468;13.342;2024-03-02T01:23:16;72.73;;;41.27;;
4961;SDS011;2496;52.468;13.342;2024-03-02T01:25:46;69.90;;;41.67;;
4961;SDS011;2496;52.468;13.342;2024-03-02T01:28:13;67.10;;;40.17;;
4961;SDS011;2496;52.468;13.342;2024-03-02T01:30:40;67.70;;;42.53;;
4961;SDS011;2496;52.468;13.342;2024-03-02T01:33:08;66.47;;;40.60;;
4961;SDS011;2496;52.468;13.342;2024-03-02T01:35:35;74.33;;;42.67;;
4961;SDS011;2496;52.468;13.342;2024-03-02T01:38:03;71.53;;;41.10;;
4961;SDS011;2496;52.468;13.342;2024-03-02T01:40:34;72.97;;;43.90;;
4961;SDS011;2496;52.468;13.342;2024-03-02T01:43:03;72.37;;;41.10;;
4961;SDS011;2496;52.468;13.342;2024-03-02T01:45:31;76.60;;;44.13;;
4961;SDS011;2496;52.468;13.342;2024-03-02T01:47:58;72.30;;;40.70;;
4961;SDS011;2496;52.468;13.342;2024-03-02T01:50:26;81.83;;;43.63;;
4961;SDS011;2496;52.468;13.342;2024-03-02T01:52:54;76.60;;;44.20;;
4961;SDS011;2496;52.468;13.342;2024-03-02T01:55:21;80.00;;;45.10;;
4961;SDS011;2496;52.468;13.342;2024-03-02T01:57:50;71.57;;;40.77;;
4961;SDS011;2496;52.468;13.342;2024-03-02T02:00:19;83.40;;;43.53;;
4961;SDS011;2496;52.468;13.342;2024-03-02T02:02:47;73.70;;;41.83;;
4961;SDS011;2496;52.468;13.342;2024-03-02T02:05:15;78.00;;;41.67;;
4961;SDS011;2496;52.468;13.342;2024-03-02T02:07:42;71.27;;;42.80;;
4961;SDS011;2496;52.468;13.342;2024-03-02T02:10:10;72.97;;;44.13;;
4961;SDS011;2496;52.468;13.342;2024-03-02T02:12:38;77.47;;;43.53;;
4961;SDS011;2496;52.468;13.342;2024-03-02T02:17:49;73.87;;;44.67;;
4961;SDS011;2496;52.468;13.342;2024-03-02T02:20:16;76.20;;;44.67;;
4961;SDS011;2496;52.468;13.342;2024-03-02T02:22:58;86.60;;;44.40;;
4961;SDS011;2496;52.468;13.342;2024-03-02T02:25:26;75.20;;;42.60;;
4961;SDS011;2496;52.468;13.342;2024-03-02T02:27:54;85.20;;;43.60;;
4961;SDS011;2496;52.468;13.342;2024-03-02T02:30:22;73.27;;;42.23;;
4961;SDS011;2496;52.468;13.342;2024-03-02T02:32:50;68.90;;;39.00;;
4961;SDS011;2496;52.468;13.342;2024-03-02T02:35:16;76.30;;;44.17;;
4961;SDS011;2496;52.468;13.342;2024-03-02T02:37:47;72.80;;;41.33;;
4961;SDS011;2496;52.468;13.342;2024-03-02T02:40:16;78.53;;;42.67;;
4961;SDS011;2496;52.468;13.342;2024-03-02T02:42:44;71.77;;;42.43;;
4961;SDS011;2496;52.468;13.342;2024-03-02T02:45:11;76.30;;;43.07;;
4961;SDS011;2496;52.468;13.342;2024-03-02T02:47:39;77.97;;;42.00;;
4961;SDS011;2496;52.468;13.342;2024-03-02T02:50:07;82.90;;;42.17;;
4961;SDS011;2496;52.468;13.342;2024-03-02T02:52:35;76.80;;;44.20;;
4961;SDS011;2496;52.468;13.342;2024-03-02T02:55:06;82.80;;;42.90;;
4961;SDS011;2496;52.468;13.342;2024-03-02T02:57:36;74.03;;;44.63;;
4961;SDS011;2496;52.468;13.342;2024-03-02T03:00:05;70.00;;;40.50;;
4961;SDS011;2496;52.468;13.342;2024-03-02T03:02:35;76.50;;;44.90;;
4961;SDS011;2496;52.468;13.342;2024-03-02T03:05:03;82.10;;;46.23;;
4961;SDS011;2496;52.468;13.342;2024-03-02T03:07:31;74.97;;;43.03;;
4961;SDS011;2496;52.468;13.342;2024-03-02T03:09:58;78.40;;;43.00;;
4961;SDS011;2496;52.468;13.342;2024-03-02T03:12:26;72.33;;;42.53;;
4961;SDS011;2496;52.468;13.342;2024-03-02T03:14:55;80.23;;;44.33;;
4961;SDS011;2496;52.468;13.342;2024-03-02T03:17:22;75.97;;;43.53;;
4961;SDS011;2496;52.468;13.342;2024-03-02T03:19:49;79.97;;;43.83;;
4961;SDS011;2496;52.468;13.342;2024-03-02T03:22:19;73.10;;;40.87;;
4961;SDS011;2496;52.468;13.342;2024-03-02T03:24:47;65.27;;;43.10;;
4961;SDS011;2496;52.468;13.342;2024-03-02T03:27:14;71.20;;;42.33;;
4961;SDS011;2496;52.468;13.342;2024-03-02T03:29:41;73.47;;;41.77;;
4961;SDS011;2496;52.468;13.342;2024-03-02T03:32:10;77.03;;;43.50;;
4961;SDS011;2496;52.468;13.342;2024-03-02T03:34:38;69.43;;;43.03;;
4961;SDS011;2496;52.468;13.342;2024-03-02T03:37:05;73.07;;;42.07;;
4961;SDS011;2496;52.468;13.342;2024-03-02T03:39:33;74.80;;;44.17;;
4961;SDS011;2496;52.468;13.342;2024-03-02T03:42:01;66.70;;;42.07;;
4961;SDS011;2496;52.468;13.342;2024-03-02T03:44:29;81.10;;;44.70;;
4961;SDS011;2496;52.468;13.342;2024-03-02T03:46:56;80.83;;;41.93;;
4961;SDS011;2496;52.468;13.342;2024-03-02T03:49:24;73.60;;;42.90;;
4961;SDS011;2496;52.468;13.342;2024-03-02T03:51:52;82.37;;;42.60;;
4961;SDS011;2496;52.468;13.342;2024-03-02T03:54:19;82.20;;;44.33;;
4961;SDS011;2496;52.468;13.342;2024-03-02T03:56:46;69.87;;;40.33;;
4961;SDS011;2496;52.468;13.342;2024-03-02T03:59:14;73.00;;;42.77;;
4961;SDS011;2496;52.468;13.342;2024-03-02T04:01:41;69.10;;;40.40;;
4961;SDS011;2496;52.468;13.342;2024-03-02T04:04:08;64.97;;;40.77;;
4961;SDS011;2496;52.468;13.342;2024-03-02T04:06:37;72.13;;;40.47;;
4961;SDS011;2496;52.468;13.342;2024-03-02T04:09:04;72.43;;;39.00;;
4961;SDS011;2496;52.468;13.342;2024-03-02T04:11:32;70.13;;;39.37;;
4961;SDS011;2496;52.468;13.342;2024-03-02T04:13:59;70.53;;;41.00;;
4961;SDS011;2496;52.468;13.342;2024-03-02T04:16:26;62.87;;;39.93;;
4961;SDS011;2496;52.468;13.342;2024-03-02T04:18:54;61.00;;;37.57;;
4961;SDS011;2496;52.468;13.342;2024-03-02T04:21:22;70.50;;;39.90;;
4961;SDS011;2496;52.468;13.342;2024-03-02T04:23:50;63.80;;;37.83;;
4961;SDS011;2496;52.468;13.342;2024-03-02T04:26:17;72.23;;;39.17;;
4961;SDS011;2496;52.468;13.342;2024-03-02T04:28:47;66.53;;;38.70;;
4961;SDS011;2496;52.468;13.342;2024-03-02T04:31:14;59.40;;;36.83;;
4961;SDS011;2496;52.468;13.342;2024-03-02T04:33:41;65.10;;;37.30;;
4961;SDS011;2496;52.468;13.342;2024-03-02T04:36:08;71.17;;;40.33;;
4961;SDS011;2496;52.468;13.342;2024-03-02T04:38:36;60.93;;;38.20;;
4961;SDS011;2496;52.468;13.342;2024-03-02T04:41:05;68.37;;;37.33;;
4961;SDS011;2496;52.468;13.342;2024-03-02T04:43:34;65.53;;;37.53;;
4961;SDS011;2496;52.468;13.342;2024-03-02T04:46:01;72.20;;;39.07;;
4961;SDS011;2496;52.468;13.342;2024-03-02T04:48:29;66.00;;;39.20;;
4961;SDS011;2496;52.468;13.342;2024-03-02T04:50:58;68.03;;;38.77;;
4961;SDS011;2496;52.468;13.342;2024-03-02T04:53:25;64.20;;;39.17;;
4961;SDS011;2496;52.468;13.342;2024-03-02T04:55:52;73.93;;;39.13;;
4961;SDS011;2496;52.468;13.342;2024-03-02T04:58:53;65.93;;;38.80;;
4961;SDS011;2496;52.468;13.342;2024-03-02T05:01:23;65.70;;;38.53;;
4961;SDS011;2496;52.468;13.342;2024-03-02T05:03:50;62.20;;;38.50;;
4961;SDS011;2496;52.468;13.342;2024-03-02T05:06:17;64.73;;;37.70;;
4961;SDS011;2496;52.468;13.342;2024-03-02T05:08:44;73.93;;;40.50;;
4961;SDS011;2496;52.468;13.342;2024-03-02T05:11:13;63.00;;;38.70;;
4961;SDS011;2496;52.468;13.342;2024-03-02T05:13:55;62.50;;;37.47;;
4961;SDS011;2496;52.468;13.342;2024-03-02T05:16:22;62.33;;;36.70;;
4961;SDS011;2496;52.468;13.342;2024-03-02T05:18:49;65.80;;;38.63;;
4961;SDS011;2496;52.468;13.342;2024-03-02T05:21:16;73.43;;;39.60;;
4961;SDS011;2496;52.468;13.342;2024-03-02T05:23:43;61.83;;;38.63;;
4961;SDS011;2496;52.468;13.342;2024-03-02T05:26:11;66.83;;;38.50;;
4961;SDS011;2496;52.468;13.342;2024-03-02T05:28:38;68.70;;;42.03;;
4961;SDS011;2496;52.468;13.342;2024-03-02T05:31:09;71.37;;;39.43;;
4961;SDS011;2496;52.468;13.342;2024-03-02T05:33:37;72.20;;;40.07;;
4961;SDS011;2496;52.468;13.342;2024-03-02T05:36:04;69.73;;;41.23;;
4961;SDS011;2496;52.468;13.342;2024-03-02T05:38:34;70.00;;;40.63;;
4961;SDS011;2496;52.468;13.342;2024-03-02T05:41:01;82.00;;;43.63;;
4961;SDS011;2496;52.468;13.342;2024-03-02T05:43:29;83.87;;;42.80;;
4961;SDS011;2496;52.468;13.342;2024-03-02T05:45:58;65.67;;;41.23;;
4961;SDS011;2496;52.468;13.342;2024-03-02T05:48:27;77.87;;;43.80;;
4961;SDS011;2496;52.468;13.342;2024-03-02T05:50:54;68.27;;;40.43;;
4961;SDS011;2496;52.468;13.342;2024-03-02T05:53:22;78.97;;;41.97;;
4961;SDS011;2496;52.468;13.342;2024-03-02T05:55:49;74.33;;;42.30;;
4961;SDS011;2496;52.468;13.342;2024-03-02T05:58:18;78.23;;;41.27;;
4961;SDS011;2496;52.468;13.342;2024-03-02T06:00:57;76.37;;;43.03;;
4961;SDS011;2496;52.468;13.342;2024-03-02T06:03:25;77.67;;;43.87;;
4961;SDS011;2496;52.468;13.342;2024-03-02T06:05:54;72.20;;;42.63;;
4961;SDS011;2496;52.468;13.342;2024-03-02T06:08:22;77.23;;;42.50;;
4961;SDS011;2496;52.468;13.342;2024-03-02T06:10:49;77.27;;;41.20;;
4961;SDS011;2496;52.468;13.342;2024-03-02T06:13:16;81.90;;;43.13;;
4961;SDS011;2496;52.468;13.342;2024-03-02T06:15:44;76.07;;;42.57;;
4961;SDS011;2496;52.468;13.342;2024-03-02T06:18:11;74.63;;;43.60;;
4961;SDS011;2496;52.468;13.342;2024-03-02T06:20:38;84.70;;;45.23;;
4961;SDS011;2496;52.468;13.342;2024-03-02T06:23:07;71.33;;;43.23;;
4961;SDS011;2496;52.468;13.342;2024-03-02T06:25:35;76.10;;;43.53;;
4961;SDS011;2496;52.468;13.342;2024-03-02T06:28:02;78.83;;;43.00;;
4961;SDS011;2496;52.468;13.342;2024-03-02T06:30:30;72.67;;;41.60;;
4961;SDS011;2496;52.468;13.342;2024-03-02T06:32:57;75.47;;;42.30;;
4961;SDS011;2496;52.468;13.342;2024-03-02T06:35:25;71.97;;;42.67;;
4961;SDS011;2496;52.468;13.342;2024-03-02T06:37:52;70.40;;;40.47;;
4961;SDS011;2496;52.468;13.342;2024-03-02T06:40:21;78.17;;;44.47;;
4961;SDS011;2496;52.468;13.342;2024-03-02T06:42:48;72.13;;;41.20;;
4961;SDS011;2496;52.468;13.342;2024-03-02T06:45:15;68.47;;;40.57;;
4961;SDS011;2496;52.468;13.342;2024-03-02T06:47:43;72.50;;;41.27;;
4961;SDS011;2496;52.468;13.342;2024-03-02T06:50:11;81.73;;;43.53;;
4961;SDS011;2496;52.468;13.342;2024-03-02T06:52:38;68.03;;;41.90;;
4961;SDS011;2496;52.468;13.342;2024-03-02T06:55:06;85.60;;;42.67;;
4961;SDS011;2496;52.468;13.342;2024-03-02T06:57:35;85.53;;;42.67;;
4961;SDS011;2496;52.468;13.342;2024-03-02T07:00:02;72.07;;;41.63;;
4961;SDS011;2496;52.468;13.342;2024-03-02T07:02:30;81.60;;;42.43;;
4961;SDS011;2496;52.468;13.342;2024-03-02T07:04:58;74.03;;;41.70;;
4961;SDS011;2496;52.468;13.342;2024-03-02T07:07:25;75.03;;;42.83;;
4961;SDS011;2496;52.468;13.342;2024-03-02T07:09:52;72.90;;;41.43;;
4961;SDS011;2496;52.468;13.342;2024-03-02T07:12:20;78.30;;;41.20;;
4961;SDS011;2496;52.468;13.342;2024-03-02T07:14:48;76.87;;;41.43;;
4961;SDS011;2496;52.468;13.342;2024-03-02T07:17:50;79.43;;;41.47;;
4961;SDS011;2496;52.468;13.342;2024-03-02T07:20:17;77.30;;;43.70;;
4961;SDS011;2496;52.468;13.342;2024-03-02T07:22:44;77.17;;;41.47;;
4961;SDS011;2496;52.468;13.342;2024-03-02T07:25:12;71.90;;;42.53;;
4961;SDS011;2496;52.468;13.342;2024-03-02T07:27:39;81.33;;;41.90;;
4961;SDS011;2496;52.468;13.342;2024-03-02T07:30:13;71.03;;;40.60;;
4961;SDS011;2496;52.468;13.342;2024-03-02T07:32:41;73.20;;;41.27;;
4961;SDS011;2496;52.468;13.342;2024-03-02T07:35:11;70.70;;;40.00;;
4961;SDS011;2496;52.468;13.342;2024-03-02T07:37:38;68.70;;;39.60;;
4961;SDS011;2496;52.468;13.342;2024-03-02T07:40:06;75.47;;;40.80;;
4961;SDS011;2496;52.468;13.342;2024-03-02T07:42:36;83.67;;;43.20;;
4961;SDS011;2496;52.468;13.342;2024-03-02T07:45:05;69.13;;;40.40;;
4961;SDS011;2496;52.468;13.342;2024-03-02T07:47:36;77.87;;;41.37;;
4961;SDS011;2496;52.468;13.342;2024-03-02T07:50:04;74.13;;;38.10;;
4961;SDS011;2496;52.468;13.342;2024-03-02T07:52:32;65.60;;;39.93;;
4961;SDS011;2496;52.468;13.342;2024-03-02T07:54:59;71.10;;;38.40;;
4961;SDS011;2496;52.468;13.342;2024-03-02T07:57:27;70.73;;;42.03;;
4961;SDS011;2496;52.468;13.342;2024-03-02T07:59:54;65.23;;;37.00;;
4961;SDS011;2496;52.468;13.342;2024-03-02T08:02:21;70.33;;;39.50;;
4961;SDS011;2496;52.468;13.342;2024-03-02T08:04:50;65.07;;;37.73;;
4961;SDS011;2496;52.468;13.342;2024-03-02T08:07:17;66.13;;;37.37;;
4961;SDS011;2496;52.468;13.342;2024-03-02T08:09:45;70.07;;;38.93;;
4961;SDS011;2496;52.468;13.342;2024-03-02T08:12:12;70.03;;;39.40;;
4961;SDS011;2496;52.468;13.342;2024-03-02T08:14:39;72.43;;;40.10;;
4961;SDS011;2496;52.468;13.342;2024-03-02T08:17:06;75.47;;;39.00;;
4961;SDS011;2496;52.468;13.342;2024-03-02T08:19:35;75.03;;;39.10;;
4961;SDS011;2496;52.468;13.342;2024-03-02T08:22:03;66.03;;;39.63;;
4961;SDS011;2496;52.468;13.342;2024-03-02T08:24:31;57.17;;;35.27;;
4961;SDS011;2496;52.468;13.342;2024-03-02T08:26:58;69.10;;;39.80;;
4961;SDS011;2496;52.468;13.342;2024-03-02T08:29:26;74.13;;;41.23;;
4961;SDS011;2496;52.468;13.342;2024-03-02T08:31:56;65.83;;;38.73;;
4961;SDS011;2496;52.468;13.342;2024-03-02T08:34:23;70.07;;;37.90;;
4961;SDS011;2496;52.468;13.342;2024-03-02T08:36:51;68.83;;;39.20;;
4961;SDS011;2496;52.468;13.342;2024-03-02T08:39:20;69.50;;;38.83;;
4961;SDS011;2496;52.468;13.342;2024-03-02T08:41:47;68.33;;;37.60;;
4961;SDS011;2496;52.468;13.342;2024-03-02T08:44:14;62.27;;;38.67;;
4961;SDS011;2496;52.468;13.342;2024-03-02T08:46:42;69.47;;;39.40;;
4961;SDS011;2496;52.468;13.342;2024-03-02T08:49:09;78.87;;;39.10;;
4961;SDS011;2496;52.468;13.342;2024-03-02T08:51:36;65.33;;;38.40;;
4961;SDS011;2496;52.468;13.342;2024-03-02T08:54:04;65.50;;;37.20;;
4961;SDS011;2496;52.468;13.342;2024-03-02T08:56:32;74.63;;;41.17;;
4961;SDS011;2496;52.468;13.342;2024-03-02T08:59:00;68.90;;;39.20;;
4961;SDS011;2496;52.468;13.342;2024-03-02T09:01:27;65.23;;;38.80;;
4961;SDS011;2496;52.468;13.342;2024-03-02T09:03:54;66.13;;;37.40;;
4961;SDS011;2496;52.468;13.342;2024-03-02T09:06:22;66.50;;;37.87;;
4961;SDS011;2496;52.468;13.342;2024-03-02T09:08:49;68.57;;;37.80;;
4961;SDS011;2496;52.468;13.342;2024-03-02T09:11:17;58.90;;;35.30;;
4961;SDS011;2496;52.468;13.342;2024-03-02T09:13:46;62.80;;;37.07;;
4961;SDS011;2496;52.468;13.342;2024-03-02T09:16:13;70.30;;;38.17;;
4961;SDS011;2496;52.468;13.342;2024-03-02T09:18:40;72.37;;;39.33;;
4961;SDS011;2496;52.468;13.342;2024-03-02T09:21:07;66.67;;;37.37;;
4961;SDS011;2496;52.468;13.342;2024-03-02T09:23:35;64.03;;;37.60;;
4961;SDS011;2496;52.468;13.342;2024-03-02T09:26:03;62.60;;;36.50;;
4961;SDS011;2496;52.468;13.342;2024-03-02T09:28:30;62.53;;;36.20;;
4961;SDS011;2496;52.468;13.342;2024-03-02T09:30:59;65.20;;;36.37;;
4961;SDS011;2496;52.468;13.342;2024-03-02T09:33:27;78.70;;;38.73;;
4961;SDS011;2496;52.468;13.342;2024-03-02T09:35:54;66.70;;;35.87;;
4961;SDS011;2496;52.468;13.342;2024-03-02T09:38:22;68.57;;;39.53;;
4961;SDS011;2496;52.468;13.342;2024-03-02T09:40:49;58.50;;;33.53;;
4961;SDS011;2496;52.468;13.342;2024-03-02T09:43:16;61.53;;;35.80;;
4961;SDS011;2496;52.468;13.342;2024-03-02T09:45:44;59.20;;;34.40;;
4961;SDS011;2496;52.468;13.342;2024-03-02T09:48:13;66.00;;;35.47;;
4961;SDS011;2496;52.468;13.342;2024-03-02T09:50:43;63.43;;;35.67;;
4961;SDS011;2496;52.468;13.342;2024-03-02T09:53:10;57.60;;;36.20;;
4961;SDS011;2496;52.468;13.342;2024-03-02T09:55:38;61.47;;;35.67;;
4961;SDS011;2496;52.468;13.342;2024-03-02T09:58:09;51.90;;;31.80;;
4961;SDS011;2496;52.468;13.342;2024-03-02T10:00:36;49.20;;;30.43;;
4961;SDS011;2496;52.468;13.342;2024-03-02T10:03:03;59.13;;;31.70;;
4961;SDS011;2496;52.468;13.342;2024-03-02T10:05:32;55.43;;;29.80;;
4961;SDS011;2496;52.468;13.342;2024-03-02T10:08:00;47.73;;;29.40;;
4961;SDS011;2496;52.468;13.342;2024-03-02T10:10:37;56.60;;;32.37;;
4961;SDS011;2496;52.468;13.342;2024-03-02T10:13:07;53.40;;;29.77;;
4961;SDS011;2496;52.468;13.342;2024-03-02T10:15:35;48.17;;;27.60;;
4961;SDS011;2496;52.468;13.342;2024-03-02T10:18:02;49.80;;;28.13;;
4961;SDS011;2496;52.468;13.342;2024-03-02T10:20:30;42.30;;;27.80;;
4961;SDS011;2496;52.468;13.342;2024-03-02T10:23:09;51.67;;;29.70;;
4961;SDS011;2496;52.468;13.342;2024-03-02T10:25:36;44.60;;;25.20;;
4961;SDS011;2496;52.468;13.342;2024-03-02T10:28:04;50.57;;;27.40;;
4961;SDS011;2496;52.468;13.342;2024-03-02T10:30:31;42.97;;;25.77;;
4961;SDS011;2496;52.468;13.342;2024-03-02T10:32:59;41.30;;;25.20;;
4961;SDS011;2496;52.468;13.342;2024-03-02T10:35:27;42.87;;;25.30;;
4961;SDS011;2496;52.468;13.342;2024-03-02T10:37:56;52.10;;;24.57;;
4961;SDS011;2496;52.468;13.342;2024-03-02T10:40:26;38.83;;;25.73;;
4961;SDS011;2496;52.468;13.342;2024-03-02T10:42:54;39.00;;;25.00;;
4961;SDS011;2496;52.468;13.342;2024-03-02T10:45:21;46.10;;;25.40;;
4961;SDS011;2496;52.468;13.342;2024-03-02T10:47:48;42.87;;;26.30;;
4961;SDS011;2496;52.468;13.342;2024-03-02T10:50:16;42.00;;;24.80;;
4961;SDS011;2496;52.468;13.342;2024-03-02T10:52:44;40.90;;;25.00;;
4961;SDS011;2496;52.468;13.342;2024-03-02T10:55:11;42.50;;;25.33;;
4961;SDS011;2496;52.468;13.342;2024-03-02T10:57:45;38.63;;;24.40;;
4961;SDS011;2496;52.468;13.342;2024-03-02T11:00:17;40.27;;;24.30;;
4961;SDS011;2496;52.468;13.342;2024-03-02T11:02:50;35.00;;;23.37;;
4961;SDS011;2496;52.468;13.342;2024-03-02T11:05:20;45.93;;;24.80;;
4961;SDS011;2496;52.468;13.342;2024-03-02T11:07:50;38.23;;;22.10;;
4961;SDS011;2496;52.468;13.342;2024-03-02T11:10:19;40.57;;;23.07;;
4961;SDS011;2496;52.468;13.342;2024-03-02T11:12:48;39.83;;;22.90;;
4961;SDS011;2496;52.468;13.342;2024-03-02T11:15:19;37.03;;;22.40;;
4961;SDS011;2496;52.468;13.342;2024-03-02T11:17:47;34.40;;;21.10;;
4961;SDS011;2496;52.468;13.342;2024-03-02T11:20:16;31.93;;;21.17;;
4961;SDS011;2496;52.468;13.342;2024-03-02T11:22:44;37.00;;;22.53;;
4961;SDS011;2496;52.468;13.342;2024-03-02T11:25:22;37.13;;;23.33;;
4961;SDS011;2496;52.468;13.342;2024-03-02T11:28:01;41.20;;;24.90;;
4961;SDS011;2496;52.468;13.342;2024-03-02T11:33:15;42.03;;;24.03;;
4961;SDS011;2496;52.468;13.342;2024-03-02T11:35:49;38.90;;;22.00;;
4961;SDS011;2496;52.468;13.342;2024-03-02T11:38:17;34.13;;;22.53;;
4961;SDS011;2496;52.468;13.342;2024-03-02T11:40:44;38.37;;;22.57;;
4961;SDS011;2496;52.468;13.342;2024-03-02T11:43:13;36.50;;;21.63;;
4961;SDS011;2496;52.468;13.342;2024-03-02T11:45:41;46.20;;;22.30;;
4961;SDS011;2496;52.468;13.342;2024-03-02T11:48:10;35.93;;;22.90;;
4961;SDS011;2496;52.468;13.342;2024-03-02T11:50:40;36.13;;;23.03;;
4961;SDS011;2496;52.468;13.342;2024-03-02T11:53:08;42.97;;;23.67;;
4961;SDS011;2496;52.468;13.342;2024-03-02T11:55:35;36.20;;;24.00;;
4961;SDS011;2496;52.468;13.342;2024-03-02T11:58:03;39.17;;;22.50;;
4961;SDS011;2496;52.468;13.342;2024-03-02T12:00:32;36.17;;;23.07;;
4961;SDS011;2496;52.468;13.342;2024-03-02T12:03:00;36.10;;;22.37;;
4961;SDS011;2496;52.468;13.342;2024-03-02T12:05:27;35.20;;;21.90;;
4961;SDS011;2496;52.468;13.342;2024-03-02T12:07:56;38.10;;;23.97;;
4961;SDS011;2496;52.468;13.342;2024-03-02T12:10:23;37.53;;;22.47;;
4961;SDS011;2496;52.468;13.342;2024-03-02T12:12:55;38.33;;;23.33;;
4961;SDS011;2496;52.468;13.342;2024-03-02T12:15:23;40.33;;;25.50;;
4961;SDS011;2496;52.468;13.342;2024-03-02T12:17:53;35.33;;;23.60;;
4961;SDS011;2496;52.468;13.342;2024-03-02T12:20:21;37.50;;;23.67;;
4961;SDS011;2496;52.468;13.342;2024-03-02T12:22:49;37.67;;;22.37;;
4961;SDS011;2496;52.468;13.342;2024-03-02T12:25:17;41.77;;;26.00;;
4961;SDS011;2496;52.468;13.342;2024-03-02T12:27:45;38.10;;;23.70;;
4961;SDS011;2496;52.468;13.342;2024-03-02T12:30:12;49.10;;;25.73;;
4961;SDS011;2496;52.468;13.342;2024-03-02T12:32:40;38.07;;;23.50;;
4961;SDS011;2496;52.468;13.342;2024-03-02T12:35:09;34.50;;;22.70;;
4961;SDS011;2496;52.468;13.342;2024-03-02T12:37:43;39.07;;;23.30;;
4961;SDS011;2496;52.468;13.342;2024-03-02T12:40:11;45.07;;;23.70;;
4961;SDS011;2496;52.468;13.342;2024-03-02T12:42:38;37.57;;;22.97;;
4961;SDS011;2496;52.468;13.342;2024-03-02T12:45:07;36.93;;;24.03;;
4961;SDS011;2496;52.468;13.342;2024-03-02T12:47:34;40.70;;;23.80;;
4961;SDS011;2496;52.468;13.342;2024-03-02T12:50:03;34.43;;;23.83;;
4961;SDS011;2496;52.468;13.342;2024-03-02T12:52:31;35.73;;;22.93;;
4961;SDS011;2496;52.468;13.342;2024-03-02T12:54:59;42.00;;;24.53;;
4961;SDS011;2496;52.468;13.342;2024-03-02T12:57:28;40.03;;;23.23;;
4961;SDS011;2496;52.468;13.342;2024-03-02T12:59:59;36.70;;;22.07;;
4961;SDS011;2496;52.468;13.342;2024-03-02T13:02:27;34.63;;;21.83;;
4961;SDS011;2496;52.468;13.342;2024-03-02T13:04:55;37.00;;;21.80;;
4961;SDS011;2496;52.468;13.342;2024-03-02T13:07:23;43.00;;;24.43;;
4961;SDS011;2496;52.468;13.342;2024-03-02T13:09:51;34.47;;;22.23;;
4961;SDS011;2496;52.468;13.342;2024-03-02T13:12:20;36.77;;;23.10;;
4961;SDS011;2496;52.468;13.342;2024-03-02T13:14:48;34.30;;;21.83;;
4961;SDS011;2496;52.468;13.342;2024-03-02T13:17:17;39.17;;;22.80;;
4961;SDS011;2496;52.468;13.342;2024-03-02T13:19:50;36.77;;;23.20;;
4961;SDS011;2496;52.468;13.342;2024-03-02T13:22:19;35.23;;;21.50;;
4961;SDS011;2496;52.468;13.342;2024-03-02T13:24:46;41.07;;;21.60;;
4961;SDS011;2496;52.468;13.342;2024-03-02T13:27:14;34.00;;;21.17;;
4961;SDS011;2496;52.468;13.342;2024-03-02T13:29:44;39.70;;;22.90;;
4961;SDS011;2496;52.468;13.342;2024-03-02T13:32:12;33.03;;;20.40;;
4961;SDS011;2496;52.468;13.342;2024-03-02T13:34:40;37.53;;;21.90;;
4961;SDS011;2496;52.468;13.342;2024-03-02T13:37:07;34.17;;;21.17;;
4961;SDS011;2496;52.468;13.342;2024-03-02T13:39:34;31.93;;;20.50;;
4961;SDS011;2496;52.468;13.342;2024-03-02T13:42:06;35.00;;;21.30;;
4961;SDS011;2496;52.468;13.342;2024-03-02T13:44:35;30.97;;;19.90;;
4961;SDS011;2496;52.468;13.342;2024-03-02T13:47:02;32.27;;;20.73;;
4961;SDS011;2496;52.468;13.342;2024-03-02T13:49:30;29.50;;;18.20;;
4961;SDS011;2496;52.468;13.342;2024-03-02T13:52:01;30.57;;;17.77;;
4961;SDS011;2496;52.468;13.342;2024-03-02T13:54:36;32.37;;;20.37;;
4961;SDS011;2496;52.468;13.342;2024-03-02T13:57:04;34.43;;;21.03;;
4961;SDS011;2496;52.468;13.342;2024-03-02T13:59:31;34.07;;;20.50;;
4961;SDS011;2496;52.468;13.342;2024-03-02T14:02:00;34.80;;;20.27;;
4961;SDS011;2496;52.468;13.342;2024-03-02T14:04:29;27.37;;;17.93;;
4961;SDS011;2496;52.468;13.342;2024-03-02T14:06:56;26.37;;;15.93;;
4961;SDS011;2496;52.468;13.342;2024-03-02T14:09:24;28.57;;;16.83;;
4961;SDS011;2496;52.468;13.342;2024-03-02T14:11:51;23.90;;;15.53;;
4961;SDS011;2496;52.468;13.342;2024-03-02T14:14:18;29.43;;;17.37;;
4961;SDS011;2496;52.468;13.342;2024-03-02T14:16:45;27.30;;;16.50;;
4961;SDS011;2496;52.468;13.342;2024-03-02T14:19:14;28.30;;;16.17;;
4961;SDS011;2496;52.468;13.342;2024-03-02T14:21:41;25.70;;;16.07;;
4961;SDS011;2496;52.468;13.342;2024-03-02T14:24:08;27.03;;;14.40;;
4961;SDS011;2496;52.468;13.342;2024-03-02T14:26:36;23.27;;;14.87;;
4961;SDS011;2496;52.468;13.342;2024-03-02T14:29:03;24.57;;;16.40;;
4961;SDS011;2496;52.468;13.342;2024-03-02T14:31:31;18.57;;;13.90;;
4961;SDS011;2496;52.468;13.342;2024-03-02T14:33:58;23.13;;;14.20;;
4961;SDS011;2496;52.468;13.342;2024-03-02T14:36:27;23.80;;;15.80;;
4961;SDS011;2496;52.468;13.342;2024-03-02T14:38:54;24.20;;;15.50;;
4961;SDS011;2496;52.468;13.342;2024-03-02T14:41:22;28.80;;;14.80;;
4961;SDS011;2496;52.468;13.342;2024-03-02T14:43:50;29.30;;;16.30;;
4961;SDS011;2496;52.468;13.342;2024-03-02T14:46:17;29.80;;;17.27;;
4961;SDS011;2496;52.468;13.342;2024-03-02T14:48:45;23.77;;;14.90;;